Time;durP1;ratioP1;P1;durP2;ratioP2;P2;SDS_P1;SDS_P2;PMS_P1;PMS_P2;Temp;Humidity;BMP_temperature;BMP_pressure;BME280_temperature;BME280_humidity;BME280_pressure;Samples;Min_cycle;Max_cycle;Signal;HPM_P1;HPM_P2
2023/01/30 00:02:19;;;;;;;34.70;23.88;;;;;;;;;;4873627;28;99636;-73
2023/01/30 00:04:46;;;;;;;34.85;23.75;;;;;;;;;;4879760;28;99033;-73
2023/01/30 00:07:12;;;;;;;24.00;19.02;;;;;;;;;;4875530;28;98342;-74
2023/01/30 00:09:39;;;;;;;26.67;21.20;;;;;;;;;;4884038;28;99362;-73
2023/01/30 00:12:06;;;;;;;28.33;19.60;;;;;;;;;;4884089;28;99629;-74
2023/01/30 00:14:32;;;;;;;31.13;20.33;;;;;;;;;;4888142;28;98375;-74
2023/01/30 00:16:59;;;;;;;33.80;21.67;;;;;;;;;;4874410;28;100042;-73
2023/01/30 00:19:25;;;;;;;31.42;21.13;;;;;;;;;;4882878;28;98595;-73
2023/01/30 00:21:51;;;;;;;25.45;19.42;;;;;;;;;;4873563;28;98694;-74
2023/01/30 00:24:18;;;;;;;37.15;20.13;;;;;;;;;;4873687;28;98381;-72
2023/01/30 00:26:44;;;;;;;30.70;18.52;;;;;;;;;;4882986;28;98815;-74
2023/01/30 00:29:11;;;;;;;26.55;17.27;;;;;;;;;;4887108;28;99662;-72
2023/01/30 00:31:37;;;;;;;23.20;17.50;;;;;;;;;;4886804;28;99005;-72
2023/01/30 00:34:03;;;;;;;27.67;18.85;;;;;;;;;;4881555;28;98364;-74
2023/01/30 00:36:30;;;;;;;24.35;14.50;;;;;;;;;;4884896;28;98657;-75
2023/01/30 00:38:58;;;;;;;26.85;16.58;;;;;;;;;;4891246;28;99357;-73
2023/01/30 00:47:03;;;;;;;27.08;15.30;;;;;;;;;;4885574;28;98684;-74
2023/01/30 00:47:04;;;;;;;19.55;13.95;;;;;;;;;;4884080;28;98433;-73
2023/01/30 00:49:31;;;;;;;18.35;11.20;;;;;;;;;;4889719;28;99577;-73
2023/01/30 00:51:58;;;;;;;17.80;13.02;;;;;;;;;;4902575;28;99288;-73
2023/01/30 00:54:24;;;;;;;16.10;11.93;;;;;;;;;;4884347;28;99412;-73
2023/01/30 00:56:50;;;;;;;19.15;13.35;;;;;;;;;;4893463;28;99047;-73
2023/01/30 00:59:17;;;;;;;25.05;12.00;;;;;;;;;;4885249;28;99907;-73
2023/01/30 01:01:43;;;;;;;20.65;13.18;;;;;;;;;;4872477;28;98836;-73
2023/01/30 01:04:12;;;;;;;17.67;11.60;;;;;;;;;;4871582;28;98721;-72
2023/01/30 01:06:39;;;;;;;19.80;11.82;;;;;;;;;;4886868;28;98338;-73
2023/01/30 01:09:05;;;;;;;20.92;12.50;;;;;;;;;;4877688;28;98787;-73
2023/01/30 01:11:32;;;;;;;25.25;12.75;;;;;;;;;;4883552;28;99504;-74
2023/01/30 01:13:59;;;;;;;24.63;12.45;;;;;;;;;;4904583;28;98774;-74
2023/01/30 01:16:27;;;;;;;24.67;13.32;;;;;;;;;;4904899;28;98507;-74
2023/01/30 01:18:56;;;;;;;24.17;12.70;;;;;;;;;;4877464;28;98970;-73
2023/01/30 01:21:23;;;;;;;24.58;13.68;;;;;;;;;;4878799;28;98137;-74
2023/01/30 01:23:56;;;;;;;23.70;13.48;;;;;;;;;;4890592;28;98957;-74
2023/01/30 01:26:23;;;;;;;22.92;13.98;;;;;;;;;;4881638;28;98155;-74
2023/01/30 01:28:53;;;;;;;28.20;14.45;;;;;;;;;;4883099;28;99616;-75
2023/01/30 01:31:19;;;;;;;29.23;14.13;;;;;;;;;;4878480;28;99052;-73
2023/01/30 01:33:46;;;;;;;25.55;14.52;;;;;;;;;;4882377;28;99674;-74
2023/01/30 01:36:12;;;;;;;24.70;13.48;;;;;;;;;;4884510;28;99032;-73
2023/01/30 01:38:59;;;;;;;20.10;13.80;;;;;;;;;;4885663;28;98677;-73
2023/01/30 01:41:25;;;;;;;25.95;14.93;;;;;;;;;;4881666;28;98829;-73
2023/01/30 01:44:06;;;;;;;27.05;13.70;;;;;;;;;;4873540;28;99687;-73
2023/01/30 01:46:42;;;;;;;25.77;14.23;;;;;;;;;;4884617;28;98301;-73
2023/01/30 01:49:32;;;;;;;24.70;10.07;;;;;;;;;;4877814;28;98590;-73
2023/01/30 01:52:14;;;;;;;29.88;13.88;;;;;;;;;;4865414;28;100478;-74
2023/01/30 01:54:44;;;;;;;30.00;16.20;;;;;;;;;;4871402;28;98566;-74
2023/01/30 01:57:14;;;;;;;27.42;13.15;;;;;;;;;;4895377;28;99931;-73
2023/01/30 02:00:01;;;;;;;30.92;12.38;;;;;;;;;;4877269;28;99554;-73
2023/01/30 02:02:42;;;;;;;21.95;11.82;;;;;;;;;;4882916;28;98337;-73
2023/01/30 02:05:11;;;;;;;21.33;11.63;;;;;;;;;;4885555;28;99539;-73
2023/01/30 02:07:46;;;;;;;24.15;11.68;;;;;;;;;;4871984;28;98518;-74
2023/01/30 02:10:36;;;;;;;22.88;11.40;;;;;;;;;;4887485;28;100593;-73
2023/01/30 02:13:03;;;;;;;30.95;11.93;;;;;;;;;;4875617;28;100646;-73
2023/01/30 02:15:29;;;;;;;24.00;9.25;;;;;;;;;;4874653;28;98256;-74
2023/01/30 02:17:56;;;;;;;19.00;9.20;;;;;;;;;;4883918;28;98683;-74
2023/01/30 02:20:27;;;;;;;26.42;9.90;;;;;;;;;;4883482;28;98826;-75
2023/01/30 02:23:14;;;;;;;17.85;10.23;;;;;;;;;;4871331;28;98166;-75
2023/01/30 02:25:43;;;;;;;23.02;9.82;;;;;;;;;;4880467;28;98481;-75
2023/01/30 02:28:34;;;;;;;25.67;9.73;;;;;;;;;;4888801;28;101053;-75
2023/01/30 02:31:03;;;;;;;22.85;10.50;;;;;;;;;;4870521;28;98631;-76
2023/01/30 02:33:30;;;;;;;15.73;5.93;;;;;;;;;;4869698;28;99238;-75
2023/01/30 02:36:02;;;;;;;23.80;10.32;;;;;;;;;;4895989;28;98353;-76
2023/01/30 02:38:47;;;;;;;21.13;8.88;;;;;;;;;;4884590;28;101337;-76
2023/01/30 02:41:14;;;;;;;22.80;9.98;;;;;;;;;;4873327;28;98825;-76
2023/01/30 02:43:52;;;;;;;23.40;9.20;;;;;;;;;;4870472;28;98576;-76
2023/01/30 02:46:23;;;;;;;20.67;8.63;;;;;;;;;;4896140;28;99078;-77
2023/01/30 02:48:53;;;;;;;25.17;8.82;;;;;;;;;;4879796;28;99018;-77
2023/01/30 02:51:22;;;;;;;29.05;9.63;;;;;;;;;;4885168;28;99500;-77
2023/01/30 02:53:49;;;;;;;18.35;8.88;;;;;;;;;;4901585;28;100810;-77
2023/01/30 02:56:16;;;;;;;22.10;9.32;;;;;;;;;;4903171;28;98330;-77
2023/01/30 02:58:45;;;;;;;16.30;8.05;;;;;;;;;;4886965;28;100284;-77
2023/01/30 03:01:11;;;;;;;14.82;7.63;;;;;;;;;;4888813;28;101715;-79
2023/01/30 03:03:40;;;;;;;13.25;6.85;;;;;;;;;;4876658;28;98324;-77
2023/01/30 03:06:25;;;;;;;15.55;6.82;;;;;;;;;;4887248;28;100777;-77
2023/01/30 03:08:59;;;;;;;22.33;7.72;;;;;;;;;;4898447;28;99110;-78
2023/01/30 03:11:32;;;;;;;18.63;6.28;;;;;;;;;;4870849;28;98470;-78
2023/01/30 03:13:58;;;;;;;;;;;;;;;;;;4888711;28;100589;-77
2023/01/30 03:16:30;;;;;;;22.23;8.02;;;;;;;;;;4874412;28;98545;-78
2023/01/30 03:19:02;;;;;;;17.00;6.83;;;;;;;;;;4891320;28;101220;-77
2023/01/30 03:21:30;;;;;;;19.45;5.68;;;;;;;;;;4869964;28;98820;-77
2023/01/30 03:23:57;;;;;;;18.92;5.93;;;;;;;;;;4893911;28;98389;-77
2023/01/30 03:26:28;;;;;;;22.13;6.57;;;;;;;;;;4880927;28;100782;-77
2023/01/30 03:28:55;;;;;;;9.57;3.67;;;;;;;;;;4884326;28;99129;-77
2023/01/30 03:31:21;;;;;;;12.68;5.05;;;;;;;;;;4883522;28;98424;-79
2023/01/30 03:33:48;;;;;;;28.48;7.32;;;;;;;;;;4884628;28;98953;-77
2023/01/30 03:36:15;;;;;;;22.85;6.25;;;;;;;;;;4892635;28;98928;-79
2023/01/30 03:38:41;;;;;;;10.82;4.45;;;;;;;;;;4875785;28;98344;-78
2023/01/30 03:41:08;;;;;;;24.40;5.30;;;;;;;;;;4887904;28;99156;-78
2023/01/30 03:43:36;;;;;;;16.33;4.93;;;;;;;;;;4878136;28;99364;-78
2023/01/30 03:46:04;;;;;;;23.70;5.15;;;;;;;;;;4886411;28;100820;-78
2023/01/30 03:48:31;;;;;;;14.05;5.13;;;;;;;;;;4885931;28;101712;-77
2023/01/30 03:50:57;;;;;;;18.85;4.90;;;;;;;;;;4873612;28;98523;-76
2023/01/30 03:53:24;;;;;;;21.45;5.38;;;;;;;;;;4883997;28;101438;-77
2023/01/30 03:55:50;;;;;;;17.35;4.20;;;;;;;;;;4873011;28;99111;-77
2023/01/30 03:58:22;;;;;;;17.92;5.00;;;;;;;;;;4893628;28;101741;-77
2023/01/30 04:00:49;;;;;;;15.07;4.28;;;;;;;;;;4886387;28;101092;-76
2023/01/30 04:03:16;;;;;;;24.85;5.03;;;;;;;;;;4883456;28;98334;-76
2023/01/30 04:05:42;;;;;;;12.23;4.32;;;;;;;;;;4890000;28;98504;-76
2023/01/30 04:08:09;;;;;;;18.95;4.70;;;;;;;;;;4880500;28;100009;-76
2023/01/30 04:10:35;;;;;;;23.85;5.18;;;;;;;;;;4868581;28;98257;-77
2023/01/30 04:13:02;;;;;;;18.67;4.18;;;;;;;;;;4875293;28;99046;-76
2023/01/30 04:15:30;;;;;;;24.10;5.70;;;;;;;;;;4886368;28;99795;-76
2023/01/30 04:18:13;;;;;;;12.57;4.78;;;;;;;;;;4894984;28;98090;-77
2023/01/30 04:20:54;;;;;;;25.92;4.70;;;;;;;;;;4899786;28;101460;-77
2023/01/30 04:23:28;;;;;;;18.17;4.20;;;;;;;;;;4878638;28;98378;-76
2023/01/30 04:25:55;;;;;;;17.23;4.38;;;;;;;;;;4877848;28;100416;-77
2023/01/30 04:28:24;;;;;;;20.85;4.22;;;;;;;;;;4891139;28;100925;-77
2023/01/30 04:30:51;;;;;;;15.65;5.28;;;;;;;;;;4889077;28;99424;-77
2023/01/30 04:33:36;;;;;;;16.52;3.35;;;;;;;;;;4894264;28;99872;-76
2023/01/30 04:36:05;;;;;;;13.60;4.75;;;;;;;;;;4875762;28;101556;-76
2023/01/30 04:38:32;;;;;;;16.98;3.63;;;;;;;;;;4874714;28;98636;-77
2023/01/30 04:41:00;;;;;;;24.30;4.20;;;;;;;;;;4894568;28;100846;-76
2023/01/30 04:43:29;;;;;;;20.27;4.18;;;;;;;;;;4875283;28;98858;-76
2023/01/30 04:46:14;;;;;;;16.40;3.95;;;;;;;;;;4881145;28;98514;-76
2023/01/30 04:48:41;;;;;;;16.13;4.57;;;;;;;;;;4882703;28;101332;-78
2023/01/30 04:51:08;;;;;;;27.50;3.72;;;;;;;;;;4887675;28;98325;-76
2023/01/30 04:53:36;;;;;;;11.68;4.57;;;;;;;;;;4887305;28;98640;-75
2023/01/30 04:56:03;;;;;;;17.20;3.75;;;;;;;;;;4886766;28;101623;-77
2023/01/30 04:58:29;;;;;;;11.55;2.90;;;;;;;;;;4870679;28;98427;-75
2023/01/30 05:01:10;;;;;;;21.17;3.63;;;;;;;;;;4885898;28;101160;-75
2023/01/30 05:03:37;;;;;;;12.70;3.50;;;;;;;;;;4889889;28;98862;-75
2023/01/30 05:06:03;;;;;;;19.10;2.97;;;;;;;;;;4879992;28;99153;-76
2023/01/30 05:08:30;;;;;;;14.50;2.80;;;;;;;;;;4885553;28;99796;-77
2023/01/30 05:10:56;;;;;;;22.92;4.15;;;;;;;;;;4873388;28;98257;-75
2023/01/30 05:13:23;;;;;;;12.02;3.05;;;;;;;;;;4872707;28;99491;-77
2023/01/30 05:15:49;;;;;;;12.55;3.13;;;;;;;;;;4877896;28;100003;-76
2023/01/30 05:18:15;;;;;;;7.45;3.67;;;;;;;;;;4894993;28;98528;-76
2023/01/30 05:20:42;;;;;;;10.18;2.78;;;;;;;;;;4876273;28;99450;-75
2023/01/30 05:23:08;;;;;;;12.35;3.35;;;;;;;;;;4886979;28;99910;-75
2023/01/30 05:25:35;;;;;;;7.63;3.05;;;;;;;;;;4888079;28;98303;-76
2023/01/30 05:28:01;;;;;;;9.02;3.10;;;;;;;;;;4888905;28;100220;-75
2023/01/30 05:30:28;;;;;;;12.88;3.22;;;;;;;;;;4883875;28;98679;-75
2023/01/30 05:32:57;;;;;;;17.90;3.22;;;;;;;;;;4890223;28;98584;-75
2023/01/30 05:35:23;;;;;;;9.25;2.33;;;;;;;;;;4889278;28;99203;-75
2023/01/30 05:37:50;;;;;;;19.23;3.22;;;;;;;;;;4888872;28;98288;-75
2023/01/30 05:40:16;;;;;;;17.30;3.03;;;;;;;;;;4888437;28;98570;-74
2023/01/30 05:42:43;;;;;;;19.40;3.47;;;;;;;;;;4870800;28;98924;-73
2023/01/30 05:45:09;;;;;;;12.50;2.90;;;;;;;;;;4874978;28;98330;-75
2023/01/30 05:47:36;;;;;;;20.17;5.53;;;;;;;;;;4876952;28;100023;-73
2023/01/30 05:50:02;;;;;;;15.75;3.38;;;;;;;;;;4881717;28;98346;-74
2023/01/30 05:52:28;;;;;;;19.20;4.00;;;;;;;;;;4876743;28;99757;-75
2023/01/30 05:54:55;;;;;;;13.13;3.05;;;;;;;;;;4875725;28;99438;-74
2023/01/30 05:57:21;;;;;;;16.23;3.25;;;;;;;;;;4870970;28;98390;-74
2023/01/30 05:59:47;;;;;;;18.83;3.72;;;;;;;;;;4871817;28;99142;-75
2023/01/30 06:02:14;;;;;;;15.35;3.78;;;;;;;;;;4876686;28;99053;-75
2023/01/30 06:04:40;;;;;;;9.00;3.53;;;;;;;;;;4877698;28;98923;-75
2023/01/30 06:07:07;;;;;;;23.00;4.28;;;;;;;;;;4878705;28;99489;-74
2023/01/30 06:09:33;;;;;;;16.10;3.60;;;;;;;;;;4882715;28;98304;-74
2023/01/30 06:11:59;;;;;;;15.68;3.53;;;;;;;;;;4870947;28;98528;-75
2023/01/30 06:14:26;;;;;;;17.25;3.38;;;;;;;;;;4875382;28;99096;-74
2023/01/30 06:16:52;;;;;;;22.25;5.75;;;;;;;;;;4870885;28;98323;-76
2023/01/30 06:19:19;;;;;;;15.57;4.10;;;;;;;;;;4884303;28;99505;-74
2023/01/30 06:21:45;;;;;;;24.80;5.10;;;;;;;;;;4883930;28;98966;-73
2023/01/30 06:24:11;;;;;;;11.52;3.13;;;;;;;;;;4881095;28;99354;-75
2023/01/30 06:26:38;;;;;;;15.88;2.75;;;;;;;;;;4889185;28;99367;-75
2023/01/30 06:29:04;;;;;;;25.20;4.60;;;;;;;;;;4885922;28;100465;-73
2023/01/30 06:31:31;;;;;;;16.58;3.40;;;;;;;;;;4882228;28;98681;-74
2023/01/30 06:33:57;;;;;;;18.00;3.05;;;;;;;;;;4882874;28;99058;-74
2023/01/30 06:36:23;;;;;;;16.85;2.97;;;;;;;;;;4876653;28;98872;-74
2023/01/30 06:38:50;;;;;;;21.02;3.38;;;;;;;;;;4870755;28;99580;-74
2023/01/30 06:41:16;;;;;;;14.68;3.10;;;;;;;;;;4873069;28;99158;-74
2023/01/30 06:43:43;;;;;;;23.65;3.97;;;;;;;;;;4881849;28;101046;-75
2023/01/30 06:46:09;;;;;;;15.25;3.53;;;;;;;;;;4877431;28;98469;-75
2023/01/30 06:48:35;;;;;;;20.58;4.40;;;;;;;;;;4887017;28;100042;-75
2023/01/30 06:51:02;;;;;;;20.20;3.72;;;;;;;;;;4883833;28;98674;-74
2023/01/30 06:53:31;;;;;;;24.67;4.15;;;;;;;;;;4883673;28;98894;-76
2023/01/30 06:55:58;;;;;;;22.33;3.83;;;;;;;;;;4882835;28;98335;-75
2023/01/30 06:58:24;;;;;;;33.03;5.65;;;;;;;;;;4880825;28;100854;-75
2023/01/30 07:00:51;;;;;;;24.50;3.88;;;;;;;;;;4885022;28;100445;-75
2023/01/30 07:03:17;;;;;;;22.33;4.35;;;;;;;;;;4887275;28;98400;-76
2023/01/30 07:05:45;;;;;;;23.17;3.80;;;;;;;;;;4885277;28;99884;-76
2023/01/30 07:08:11;;;;;;;29.77;4.80;;;;;;;;;;4882565;28;100126;-75
2023/01/30 07:10:39;;;;;;;18.52;4.20;;;;;;;;;;4885759;28;98331;-77
2023/01/30 07:13:05;;;;;;;22.08;4.32;;;;;;;;;;4890016;28;99337;-76
2023/01/30 07:15:32;;;;;;;24.08;4.88;;;;;;;;;;4887058;28;99103;-76
2023/01/30 07:17:58;;;;;;;21.10;4.10;;;;;;;;;;4883721;28;99677;-75
2023/01/30 07:20:24;;;;;;;32.38;4.45;;;;;;;;;;4885164;28;100303;-74
2023/01/30 07:22:52;;;;;;;29.08;5.47;;;;;;;;;;4886099;28;99031;-76
2023/01/30 07:25:19;;;;;;;26.40;4.20;;;;;;;;;;4885772;28;99996;-77
2023/01/30 07:27:50;;;;;;;28.90;4.80;;;;;;;;;;4887022;28;100259;-77
2023/01/30 07:30:16;;;;;;;28.63;3.90;;;;;;;;;;4888080;28;100379;-77
2023/01/30 07:32:42;;;;;;;33.60;5.15;;;;;;;;;;4888185;28;99332;-76
2023/01/30 07:35:09;;;;;;;25.38;4.70;;;;;;;;;;4890316;28;100051;-75
2023/01/30 07:37:35;;;;;;;17.73;4.38;;;;;;;;;;4888598;28;99654;-75
2023/01/30 07:40:02;;;;;;;31.75;4.57;;;;;;;;;;4887262;28;99193;-77
2023/01/30 07:42:28;;;;;;;16.63;3.40;;;;;;;;;;4882725;28;98361;-79
2023/01/30 07:44:55;;;;;;;19.98;3.90;;;;;;;;;;4903171;28;100964;-76
2023/01/30 07:47:22;;;;;;;22.30;4.97;;;;;;;;;;4889116;28;100218;-77
2023/01/30 07:49:48;;;;;;;25.10;4.05;;;;;;;;;;4887774;28;100052;-77
2023/01/30 07:52:15;;;;;;;23.17;4.05;;;;;;;;;;4890652;28;99509;-77
2023/01/30 07:54:41;;;;;;;20.98;4.82;;;;;;;;;;4897399;28;100024;-77
2023/01/30 07:57:07;;;;;;;34.17;4.75;;;;;;;;;;4890090;28;98658;-77
2023/01/30 07:59:34;;;;;;;22.85;3.75;;;;;;;;;;4889767;28;99197;-77
2023/01/30 08:02:00;;;;;;;26.38;5.07;;;;;;;;;;4887971;28;98566;-76
2023/01/30 08:04:26;;;;;;;21.48;4.53;;;;;;;;;;4888218;28;98977;-75
2023/01/30 08:06:53;;;;;;;24.00;3.65;;;;;;;;;;4888440;28;99429;-77
2023/01/30 08:09:19;;;;;;;20.05;4.75;;;;;;;;;;4887609;28;98347;-76
2023/01/30 08:11:45;;;;;;;21.98;4.47;;;;;;;;;;4888351;28;99518;-77
2023/01/30 08:14:12;;;;;;;24.65;3.88;;;;;;;;;;4886812;28;99053;-76
2023/01/30 08:16:39;;;;;;;28.08;5.57;;;;;;;;;;4891488;28;98581;-77
2023/01/30 08:19:05;;;;;;;27.42;4.40;;;;;;;;;;4890877;28;99209;-77
2023/01/30 08:21:32;;;;;;;19.92;3.75;;;;;;;;;;4887462;28;98744;-76
2023/01/30 08:23:58;;;;;;;30.73;4.80;;;;;;;;;;4890029;28;99657;-76
2023/01/30 08:26:26;;;;;;;27.33;4.78;;;;;;;;;;4890560;28;100070;-76
2023/01/30 08:28:54;;;;;;;18.35;3.88;;;;;;;;;;4890849;28;99591;-77
2023/01/30 08:31:21;;;;;;;27.75;4.68;;;;;;;;;;4890562;28;99587;-76
2023/01/30 08:33:47;;;;;;;18.55;4.00;;;;;;;;;;4891197;28;100197;-79
2023/01/30 08:36:14;;;;;;;13.05;3.95;;;;;;;;;;4891310;28;98251;-77
2023/01/30 08:38:40;;;;;;;20.58;4.05;;;;;;;;;;4892596;28;99614;-77
2023/01/30 08:41:07;;;;;;;22.02;6.55;;;;;;;;;;4890721;28;99054;-77
2023/01/30 08:43:33;;;;;;;24.17;4.13;;;;;;;;;;4891202;28;98740;-77
2023/01/30 08:46:00;;;;;;;21.83;3.80;;;;;;;;;;4889872;28;100007;-77
2023/01/30 08:48:27;;;;;;;20.23;4.10;;;;;;;;;;4890764;28;98924;-77
2023/01/30 08:51:05;;;;;;;18.08;4.97;;;;;;;;;;4890492;28;99511;-77
2023/01/30 08:53:32;;;;;;;21.50;4.60;;;;;;;;;;4892894;28;100146;-77
2023/01/30 08:55:58;;;;;;;17.60;3.65;;;;;;;;;;4890419;28;98240;-77
2023/01/30 08:58:24;;;;;;;19.75;3.50;;;;;;;;;;4889561;28;99645;-77
2023/01/30 09:00:51;;;;;;;29.33;4.95;;;;;;;;;;4893272;28;100264;-77
2023/01/30 09:03:17;;;;;;;23.80;4.03;;;;;;;;;;4889790;28;99044;-77
2023/01/30 09:05:44;;;;;;;17.90;4.88;;;;;;;;;;4889851;28;101377;-77
2023/01/30 09:08:11;;;;;;;17.45;4.20;;;;;;;;;;4890592;28;98347;-77
2023/01/30 09:10:38;;;;;;;29.98;4.88;;;;;;;;;;4890481;28;99426;-75
2023/01/30 09:13:07;;;;;;;25.92;4.07;;;;;;;;;;4890283;28;99623;-77
2023/01/30 09:15:33;;;;;;;25.00;4.72;;;;;;;;;;4890557;28;98351;-77
2023/01/30 09:17:59;;;;;;;19.67;3.85;;;;;;;;;;4890273;28;99451;-77
2023/01/30 09:20:26;;;;;;;23.38;3.83;;;;;;;;;;4889972;28;100328;-77
2023/01/30 09:22:52;;;;;;;19.13;3.15;;;;;;;;;;4893252;28;98369;-76
2023/01/30 09:25:19;;;;;;;21.10;4.10;;;;;;;;;;4890777;28;99303;-76
2023/01/30 09:27:49;;;;;;;18.67;4.40;;;;;;;;;;4888020;28;98283;-79
2023/01/30 09:30:15;;;;;;;24.13;5.18;;;;;;;;;;4890349;28;99859;-77
2023/01/30 09:32:42;;;;;;;23.55;4.68;;;;;;;;;;4890595;28;100406;-78
2023/01/30 09:35:09;;;;;;;21.23;3.85;;;;;;;;;;4889128;28;99450;-78
2023/01/30 09:37:35;;;;;;;22.40;4.00;;;;;;;;;;4890851;28;99694;-79
2023/01/30 09:40:02;;;;;;;13.55;3.42;;;;;;;;;;4889852;28;99218;-78
2023/01/30 09:42:28;;;;;;;12.80;4.00;;;;;;;;;;4889691;28;98595;-77
2023/01/30 09:45:00;;;;;;;15.07;3.17;;;;;;;;;;4893517;28;98804;-79
2023/01/30 09:47:29;;;;;;;10.98;4.35;;;;;;;;;;4889801;28;98647;-78
2023/01/30 09:49:59;;;;;;;15.57;3.28;;;;;;;;;;4890235;28;99584;-78
2023/01/30 09:52:25;;;;;;;13.80;3.53;;;;;;;;;;4888638;28;98323;-78
2023/01/30 09:54:55;;;;;;;20.90;4.32;;;;;;;;;;4888946;28;98280;-78
2023/01/30 09:57:23;;;;;;;16.05;3.22;;;;;;;;;;4889268;28;99728;-78
2023/01/30 09:59:58;;;;;;;20.50;3.92;;;;;;;;;;4889018;28;99686;-78
2023/01/30 10:02:46;;;;;;;23.63;3.67;;;;;;;;;;4889264;28;98836;-78
2023/01/30 10:05:13;;;;;;;26.67;4.60;;;;;;;;;;4891684;28;98972;-78
2023/01/30 10:07:52;;;;;;;14.80;4.00;;;;;;;;;;4883182;28;98380;-78
2023/01/30 10:10:44;;;;;;;18.40;4.30;;;;;;;;;;4883266;28;99657;-78
2023/01/30 10:13:17;;;;;;;13.93;2.97;;;;;;;;;;4886850;28;99214;-77
2023/01/30 10:15:46;;;;;;;16.95;4.10;;;;;;;;;;4888344;28;98805;-79
2023/01/30 10:18:17;;;;;;;20.85;3.65;;;;;;;;;;4887769;28;99599;-78
2023/01/30 10:21:02;;;;;;;18.67;3.55;;;;;;;;;;4888882;28;99160;-76
2023/01/30 10:23:38;;;;;;;24.83;4.35;;;;;;;;;;4883256;28;98752;-78
2023/01/30 10:26:09;;;;;;;19.00;3.40;;;;;;;;;;4888376;28;98887;-79
2023/01/30 10:29:01;;;;;;;24.25;5.68;;;;;;;;;;4891989;28;100393;-78
2023/01/30 10:31:41;;;;;;;17.77;5.05;;;;;;;;;;4883877;28;99211;-78
2023/01/30 10:34:13;;;;;;;19.48;4.30;;;;;;;;;;4888470;28;98997;-78
2023/01/30 10:36:39;;;;;;;23.02;4.13;;;;;;;;;;4888143;28;98556;-78
2023/01/30 10:39:11;;;;;;;19.38;4.60;;;;;;;;;;4887923;28;99344;-76
2023/01/30 10:41:45;;;;;;;18.58;3.90;;;;;;;;;;4886039;28;99972;-77
2023/01/30 10:44:12;;;;;;;22.20;4.55;;;;;;;;;;4893108;28;100937;-77
2023/01/30 10:46:47;;;;;;;24.23;4.53;;;;;;;;;;4888504;28;98744;-77
2023/01/30 10:49:17;;;;;;;28.83;4.95;;;;;;;;;;4887242;28;100071;-77
2023/01/30 10:51:43;;;;;;;26.63;4.80;;;;;;;;;;4891719;28;99075;-77
2023/01/30 10:54:16;;;;;;;21.25;4.03;;;;;;;;;;4888466;28;98976;-77
2023/01/30 10:56:45;;;;;;;16.60;3.97;;;;;;;;;;4883186;28;98358;-78
2023/01/30 10:59:22;;;;;;;19.58;3.33;;;;;;;;;;4890649;28;99409;-78
2023/01/30 11:02:10;;;;;;;19.65;4.55;;;;;;;;;;4888410;28;99278;-78
2023/01/30 11:04:45;;;;;;;21.15;4.30;;;;;;;;;;4883353;28;98517;-78
2023/01/30 11:07:12;;;;;;;24.98;4.57;;;;;;;;;;4887523;28;99029;-78
2023/01/30 11:09:40;;;;;;;20.90;4.28;;;;;;;;;;4887803;28;99755;-78
2023/01/30 11:12:06;;;;;;;21.30;4.90;;;;;;;;;;4888369;28;98261;-77
2023/01/30 11:15:09;;;;;;;21.95;4.25;;;;;;;;;;4893804;28;99291;-78
2023/01/30 11:17:37;;;;;;;24.00;4.28;;;;;;;;;;4865627;28;99760;-78
2023/01/30 11:20:07;;;;;;;24.13;4.53;;;;;;;;;;4877672;28;99646;-78
2023/01/30 11:22:34;;;;;;;26.50;5.70;;;;;;;;;;4893697;28;99181;-77
2023/01/30 11:25:09;;;;;;;28.23;5.20;;;;;;;;;;4887778;28;98395;-77
2023/01/30 11:27:36;;;;;;;18.23;3.33;;;;;;;;;;4887649;28;99287;-78
2023/01/30 11:30:04;;;;;;;25.58;4.55;;;;;;;;;;4887543;28;98976;-77
2023/01/30 11:32:31;;;;;;;27.00;4.93;;;;;;;;;;4888461;28;98748;-77
2023/01/30 11:35:07;;;;;;;27.70;4.95;;;;;;;;;;4886764;28;99674;-78
2023/01/30 11:37:37;;;;;;;10.23;2.95;;;;;;;;;;4891609;28;100497;-76
2023/01/30 11:40:27;;;;;;;28.67;4.50;;;;;;;;;;4887441;28;99478;-77
2023/01/30 11:43:04;;;;;;;22.15;5.00;;;;;;;;;;4890305;28;100263;-78
2023/01/30 11:45:34;;;;;;;20.00;4.68;;;;;;;;;;4898100;28;98824;-77
2023/01/30 11:48:03;;;;;;;20.40;3.72;;;;;;;;;;4898759;28;99552;-78
2023/01/30 11:50:43;;;;;;;34.40;5.78;;;;;;;;;;4892140;28;100312;-77
2023/01/30 11:53:27;;;;;;;25.05;4.63;;;;;;;;;;4888514;28;98390;-78
2023/01/30 11:55:57;;;;;;;15.43;3.33;;;;;;;;;;4886932;28;99712;-77
2023/01/30 11:58:33;;;;;;;21.17;5.25;;;;;;;;;;4882686;28;99824;-77
2023/01/30 12:01:00;;;;;;;16.40;3.97;;;;;;;;;;4889725;28;98275;-78
2023/01/30 12:03:28;;;;;;;34.05;5.55;;;;;;;;;;4887230;28;100529;-78
2023/01/30 12:05:56;;;;;;;23.40;4.90;;;;;;;;;;4887093;28;98417;-78
2023/01/30 12:08:25;;;;;;;22.20;5.07;;;;;;;;;;4888134;28;99283;-78
2023/01/30 12:11:23;;;;;;;26.60;4.80;;;;;;;;;;4888273;28;100071;-77
2023/01/30 12:13:49;;;;;;;;;;;;;;;;;;4888566;28;98418;-78
2023/01/30 12:16:35;;;;;;;23.20;3.88;;;;;;;;;;4886327;28;129603;-78
2023/01/30 12:19:24;;;;;;;25.92;4.93;;;;;;;;;;4888090;28;100049;-78
2023/01/30 12:22:14;;;;;;;19.27;3.92;;;;;;;;;;4881925;28;98992;-77
2023/01/30 12:24:43;;;;;;;15.77;4.28;;;;;;;;;;4884906;28;99102;-79
2023/01/30 12:27:10;;;;;;;28.10;4.45;;;;;;;;;;4886413;28;98279;-77
2023/01/30 12:29:50;;;;;;;25.40;4.45;;;;;;;;;;4886914;28;99701;-78
2023/01/30 12:32:18;;;;;;;16.08;3.58;;;;;;;;;;4887800;28;100907;-78
2023/01/30 12:34:46;;;;;;;32.08;6.80;;;;;;;;;;4887194;28;99460;-79
2023/01/30 12:37:30;;;;;;;17.92;4.13;;;;;;;;;;4887755;28;99595;-78
2023/01/30 12:40:02;;;;;;;19.17;4.90;;;;;;;;;;4882797;28;99107;-78
2023/01/30 12:42:47;;;;;;;35.13;5.25;;;;;;;;;;4886411;28;99082;-79
2023/01/30 12:45:18;;;;;;;24.42;4.22;;;;;;;;;;4889928;28;98891;-79
2023/01/30 12:48:00;;;;;;;16.73;4.40;;;;;;;;;;4887759;28;98632;-79
2023/01/30 12:50:32;;;;;;;21.23;3.97;;;;;;;;;;4883550;28;99864;-79
2023/01/30 12:52:58;;;;;;;20.65;5.10;;;;;;;;;;4884899;28;100641;-79
2023/01/30 12:55:30;;;;;;;21.45;4.65;;;;;;;;;;4887782;28;98506;-79
2023/01/30 12:58:02;;;;;;;28.33;5.45;;;;;;;;;;4886775;28;100017;-78
2023/01/30 13:00:47;;;;;;;22.43;4.43;;;;;;;;;;4888254;28;100161;-78
2023/01/30 13:03:13;;;;;;;24.02;4.28;;;;;;;;;;4889304;28;99616;-79
2023/01/30 13:05:46;;;;;;;14.60;3.97;;;;;;;;;;4890601;28;99600;-78
2023/01/30 13:08:25;;;;;;;21.50;3.92;;;;;;;;;;4893262;28;99164;-74
2023/01/30 13:11:02;;;;;;;18.30;4.50;;;;;;;;;;4889799;28;99665;-72
2023/01/30 13:13:29;;;;;;;22.13;4.63;;;;;;;;;;4887656;28;98974;-70
2023/01/30 13:16:01;;;;;;;22.30;4.57;;;;;;;;;;4890164;28;98371;-78
2023/01/30 13:18:45;;;;;;;19.20;4.10;;;;;;;;;;4882641;28;98737;-74
2023/01/30 13:21:21;;;;;;;39.33;4.22;;;;;;;;;;4889954;28;99224;-73
2023/01/30 13:24:07;;;;;;;19.50;4.38;;;;;;;;;;4889763;28;99867;-73
2023/01/30 13:26:34;;;;;;;21.98;5.25;;;;;;;;;;4888654;28;99504;-72
2023/01/30 13:29:03;;;;;;;30.13;4.20;;;;;;;;;;4888440;28;100250;-73
2023/01/30 13:31:31;;;;;;;20.48;4.22;;;;;;;;;;4892686;28;98573;-74
2023/01/30 13:34:05;;;;;;;19.08;3.58;;;;;;;;;;4888698;28;100862;-73
2023/01/30 13:36:41;;;;;;;22.13;4.82;;;;;;;;;;4890437;28;98248;-73
2023/01/30 13:39:16;;;;;;;25.63;4.43;;;;;;;;;;4886515;28;99519;-74
2023/01/30 13:41:50;;;;;;;19.23;4.88;;;;;;;;;;4887154;28;100017;-74
2023/01/30 13:44:21;;;;;;;21.35;4.47;;;;;;;;;;4888641;28;98524;-73
2023/01/30 13:46:48;;;;;;;22.33;5.15;;;;;;;;;;4884263;28;99335;-73
2023/01/30 13:49:18;;;;;;;31.98;4.53;;;;;;;;;;4889249;28;99861;-73
2023/01/30 13:51:48;;;;;;;26.33;5.05;;;;;;;;;;4889490;28;99755;-72
2023/01/30 13:54:20;;;;;;;25.05;3.70;;;;;;;;;;4891834;28;99495;-71
2023/01/30 13:56:52;;;;;;;20.70;4.30;;;;;;;;;;4889718;28;98299;-72
2023/01/30 13:59:37;;;;;;;21.52;4.18;;;;;;;;;;4889326;28;98910;-73
2023/01/30 14:02:05;;;;;;;14.13;3.15;;;;;;;;;;4883501;28;100366;-77
2023/01/30 14:04:35;;;;;;;22.48;4.75;;;;;;;;;;4889945;28;98849;-74
2023/01/30 14:07:08;;;;;;;23.67;4.82;;;;;;;;;;4889042;28;100227;-75
2023/01/30 14:09:36;;;;;;;23.88;4.50;;;;;;;;;;4886081;28;99813;-74
2023/01/30 14:12:05;;;;;;;14.63;3.63;;;;;;;;;;4888855;28;98605;-73
2023/01/30 14:14:35;;;;;;;20.23;5.00;;;;;;;;;;4888395;28;99639;-73
2023/01/30 14:17:08;;;;;;;22.33;4.85;;;;;;;;;;4890988;28;98896;-73
2023/01/30 14:19:34;;;;;;;27.95;5.68;;;;;;;;;;4889683;28;98542;-73
2023/01/30 14:22:21;;;;;;;29.77;4.35;;;;;;;;;;4888016;28;100035;-73
2023/01/30 14:25:06;;;;;;;16.67;3.90;;;;;;;;;;4882851;28;98417;-72
2023/01/30 14:27:33;;;;;;;38.33;7.57;;;;;;;;;;4889291;28;98779;-73
2023/01/30 14:29:59;;;;;;;18.83;4.57;;;;;;;;;;4886413;28;100208;-75
2023/01/30 14:32:34;;;;;;;23.35;4.18;;;;;;;;;;4885849;28;98999;-74
2023/01/30 14:35:04;;;;;;;22.88;3.65;;;;;;;;;;4885171;28;98905;-74
2023/01/30 14:37:36;;;;;;;23.23;3.90;;;;;;;;;;4884743;28;100308;-74
2023/01/30 14:40:24;;;;;;;23.30;3.63;;;;;;;;;;4888342;28;99241;-74
2023/01/30 14:43:09;;;;;;;24.48;4.60;;;;;;;;;;4879973;28;100895;-73
2023/01/30 14:45:47;;;;;;;24.85;4.05;;;;;;;;;;4883858;28;98830;-74
2023/01/30 14:48:32;;;;;;;20.08;4.60;;;;;;;;;;4886339;28;99417;-73